Time;durP1;ratioP1;P1;durP2;ratioP2;P2;SDS_P1;SDS_P2;PMS_P1;PMS_P2;Temp;Humidity;BMP_temperature;BMP_pressure;BME280_temperature;BME280_humidity;BME280_pressure;Samples;Min_cycle;Max_cycle;Signal;HPM_P1;HPM_P2
2022/06/05 00:01:41;;;;;;;7.03;4.18;;;;;;;19.93;100.00;96037.19;5048184;28;20209;-89
2022/06/05 00:04:19;;;;;;;10.13;4.07;;;;;;;19.91;100.00;96035.84;5028739;28;20209;-89
2022/06/05 00:06:56;;;;;;;8.68;4.25;;;;;;;19.94;100.00;96038.00;5027244;28;20232;-89
2022/06/05 00:09:35;;;;;;;12.68;4.30;;;;;;;19.90;100.00;96020.53;5045440;28;20235;-89
2022/06/05 00:12:06;;;;;;;8.35;4.28;;;;;;;19.91;100.00;96035.84;5053748;28;20224;-88
2022/06/05 00:14:37;;;;;;;10.48;4.10;;;;;;;19.85;100.00;96031.56;5032521;28;20240;-89
2022/06/05 00:17:05;;;;;;;11.27;4.53;;;;;;;19.82;100.00;96019.25;5044980;28;20225;-88
2022/06/05 00:19:33;;;;;;;11.05;4.43;;;;;;;19.82;100.00;96018.47;5039839;28;20204;-89
2022/06/05 00:22:01;;;;;;;11.25;3.83;;;;;;;19.80;100.00;96026.97;5051512;28;20210;-88
2022/06/05 00:24:29;;;;;;;5.93;3.53;;;;;;;19.81;100.00;96005.88;5048004;28;20201;-89
2022/06/05 00:27:03;;;;;;;10.05;3.92;;;;;;;19.85;100.00;96006.91;5039650;28;20208;-90
2022/06/05 00:29:46;;;;;;;10.07;4.40;;;;;;;19.78;100.00;96010.03;5029827;28;20217;-89
2022/06/05 00:32:26;;;;;;;9.50;3.88;;;;;;;19.83;100.00;95996.22;5040179;28;20273;-88
2022/06/05 00:34:53;;;;;;;8.77;3.88;;;;;;;19.72;100.00;95980.25;5046234;28;20218;-89
2022/06/05 00:37:30;;;;;;;9.45;3.75;;;;;;;19.70;100.00;95983.28;5047118;28;20209;-89
2022/06/05 00:40:15;;;;;;;10.60;3.38;;;;;;;19.86;100.00;95972.91;5030863;28;20217;-89
2022/06/05 00:42:42;;;;;;;16.83;3.50;;;;;;;20.82;87.87;95982.22;5033997;28;20249;-90
2022/06/05 00:45:12;;;;;;;16.58;3.10;;;;;;;21.42;83.67;95984.88;5027666;28;20214;-89
2022/06/05 00:47:41;;;;;;;17.50;3.15;;;;;;;22.03;78.05;95972.50;5024900;28;20222;-89
2022/06/05 00:50:14;;;;;;;12.35;3.03;;;;;;;22.59;74.33;95961.69;5032434;28;20210;-89
2022/06/05 00:52:45;;;;;;;10.95;3.15;;;;;;;22.94;71.39;95950.88;5038981;28;20209;-89
2022/06/05 00:55:14;;;;;;;11.90;3.13;;;;;;;23.38;68.36;95939.66;5013844;28;20217;-89
2022/06/05 00:57:42;;;;;;;12.93;3.20;;;;;;;23.57;67.52;95928.34;5012601;28;20237;-88
2022/06/05 01:00:15;;;;;;;15.65;3.80;;;;;;;24.25;62.19;95910.16;5010242;28;20234;-88
2022/06/05 01:02:44;;;;;;;11.77;3.55;;;;;;;24.67;60.91;95913.91;5012622;28;20797;-89
2022/06/05 01:05:14;;;;;;;10.48;3.58;;;;;;;24.78;59.80;95920.69;5027207;28;20214;-88
2022/06/05 01:07:41;;;;;;;17.17;4.28;;;;;;;25.35;57.29;95920.25;5031255;28;20285;-88
2022/06/05 01:10:11;;;;;;;16.30;3.85;;;;;;;24.76;61.19;95911.13;5011004;28;20203;-88
2022/06/05 01:12:53;;;;;;;12.23;3.08;;;;;;;24.66;60.17;95906.81;5008083;28;20222;-88
2022/06/05 01:15:28;;;;;;;15.30;3.70;;;;;;;24.75;60.08;95892.97;5009497;28;20349;-88
2022/06/05 01:18:02;;;;;;;9.80;3.13;;;;;;;24.94;58.40;95889.78;5024244;28;20206;-88
2022/06/05 01:20:42;;;;;;;9.07;3.05;;;;;;;25.54;55.97;95892.97;5013374;28;20354;-87
2022/06/05 01:23:28;;;;;;;9.60;3.30;;;;;;;25.92;54.82;95895.63;5015490;28;20212;-88
2022/06/05 01:26:16;;;;;;;10.13;3.13;;;;;;;25.79;55.53;95876.53;5007981;28;20213;-88
2022/06/05 01:28:51;;;;;;;11.43;3.83;;;;;;;25.80;55.02;95864.34;5031667;28;20226;-87
2022/06/05 01:31:22;;;;;;;12.63;3.22;;;;;;;25.92;55.14;95861.63;5001950;28;20217;-89
2022/06/05 01:33:57;;;;;;;18.73;3.67;;;;;;;25.90;54.95;95859.19;5010275;28;20206;-88
2022/06/05 01:36:34;;;;;;;18.45;4.25;;;;;;;25.94;54.14;95856.56;5022960;28;20257;-87
2022/06/05 01:39:07;;;;;;;15.60;3.70;;;;;;;26.04;53.75;95842.28;5025930;28;20476;-87
2022/06/05 01:41:39;;;;;;;14.25;3.80;;;;;;;26.02;53.83;95839.09;5033173;28;20233;-87
2022/06/05 01:44:12;;;;;;;9.07;3.45;;;;;;;25.97;53.56;95828.22;5032047;28;20210;-87
2022/06/05 01:46:39;;;;;;;13.85;3.78;;;;;;;25.97;53.98;95834.56;5045645;28;20224;-88
2022/06/05 01:49:13;;;;;;;14.98;3.30;;;;;;;25.84;54.71;95821.03;5028506;28;20224;-87
2022/06/05 01:51:49;;;;;;;12.07;3.60;;;;;;;25.85;54.07;95830.97;5031251;28;20333;-88
2022/06/05 01:54:21;;;;;;;12.57;3.33;;;;;;;25.93;53.91;95830.06;5046846;28;20212;-87
2022/06/05 01:56:54;;;;;;;13.27;3.70;;;;;;;25.86;53.88;95814.00;5030598;28;20202;-87
2022/06/05 01:59:28;;;;;;;10.77;3.50;;;;;;;25.92;53.69;95809.06;5042492;28;20210;-86
2022/06/05 02:01:59;;;;;;;12.02;3.42;;;;;;;25.87;53.35;95798.22;5046371;28;21451;-85
2022/06/05 02:04:34;;;;;;;16.48;4.10;;;;;;;25.99;52.66;95792.72;5029595;28;20213;-86
2022/06/05 02:07:08;;;;;;;15.60;3.75;;;;;;;25.86;54.17;95793.84;5042307;28;20327;-87
2022/06/05 02:09:39;;;;;;;20.92;4.03;;;;;;;25.68;54.74;95789.66;5043083;28;20222;-85
2022/06/05 02:12:10;;;;;;;12.60;3.60;;;;;;;25.41;55.84;95775.22;5033513;28;20194;-87
2022/06/05 02:14:40;;;;;;;10.15;3.35;;;;;;;25.62;54.10;95767.72;5045066;28;20266;-86
2022/06/05 02:17:07;;;;;;;12.40;3.60;;;;;;;25.97;52.07;95765.41;5045640;28;20358;-85
2022/06/05 02:19:35;;;;;;;15.80;3.88;;;;;;;26.09;51.91;95755.50;5029333;28;20200;-86
2022/06/05 02:22:08;;;;;;;18.92;4.22;;;;;;;26.07;52.05;95752.28;5022209;28;20221;-88
2022/06/05 02:24:35;;;;;;;13.88;3.50;;;;;;;26.11;51.63;95759.56;5030637;28;20204;-88
2022/06/05 02:27:06;;;;;;;13.30;3.90;;;;;;;26.12;51.68;95760.34;5036660;28;20205;-86
2022/06/05 02:29:35;;;;;;;12.85;3.65;;;;;;;26.09;51.70;95739.72;5041731;28;20303;-85
2022/06/05 02:32:30;;;;;;;10.82;3.50;;;;;;;26.07;51.31;95730.94;5028766;28;20202;-85
2022/06/05 02:35:07;;;;;;;12.25;4.07;;;;;;;26.21;50.87;95725.88;5041118;28;20621;-86
2022/06/05 02:37:49;;;;;;;17.08;3.58;;;;;;;26.13;51.61;95729.56;5043807;28;20205;-87
2022/06/05 02:40:26;;;;;;;12.05;3.53;;;;;;;26.19;50.68;95716.34;5049276;28;20283;-87
2022/06/05 02:43:00;;;;;;;14.05;3.67;;;;;;;26.21;50.73;95720.34;5042342;28;20287;-86
2022/06/05 02:45:37;;;;;;;16.90;4.00;;;;;;;26.06;51.38;95709.16;5030715;28;20628;-86
2022/06/05 02:48:13;;;;;;;17.05;3.97;;;;;;;26.05;51.08;95716.66;5028474;28;20213;-86
2022/06/05 02:50:46;;;;;;;14.82;3.92;;;;;;;25.89;51.60;95707.41;5043668;28;20346;-86
2022/06/05 02:53:14;;;;;;;14.38;3.60;;;;;;;26.07;50.67;95708.81;5027949;28;20292;-86
2022/06/05 02:55:42;;;;;;;12.98;3.55;;;;;;;26.04;50.59;95689.31;5044785;28;20197;-87
2022/06/05 02:58:12;;;;;;;12.10;3.85;;;;;;;26.10;50.63;95688.78;5031434;28;20300;-86
2022/06/05 03:03:27;;;;;;;14.02;3.67;;;;;;;26.16;49.98;95692.09;5027220;28;20201;-87
2022/06/05 03:03:28;;;;;;;12.52;3.97;;;;;;;26.20;49.88;95691.06;5024273;28;20205;-85
2022/06/05 03:05:55;;;;;;;11.65;3.78;;;;;;;26.14;49.85;95703.50;5046890;28;20220;-86
2022/06/05 03:08:24;;;;;;;12.80;3.80;;;;;;;26.26;49.70;95703.56;5037821;28;20224;-87
2022/06/05 03:10:51;;;;;;;16.05;4.30;;;;;;;26.12;50.54;95705.81;5024391;28;20217;-87
2022/06/05 03:13:19;;;;;;;15.85;3.85;;;;;;;25.84;51.54;95713.19;5035274;28;20201;-85
2022/06/05 03:15:48;;;;;;;11.60;3.78;;;;;;;25.84;50.70;95711.22;5020156;28;20252;-87
2022/06/05 03:18:17;;;;;;;10.00;3.90;;;;;;;25.65;52.59;95707.38;5024258;28;20213;-87
2022/06/05 03:20:44;;;;;;;13.48;3.85;;;;;;;25.54;52.54;95723.53;5027292;28;20201;-87
2022/06/05 03:23:12;;;;;;;16.30;3.80;;;;;;;25.38;53.81;95731.66;5028562;28;20262;-86
2022/06/05 03:25:41;;;;;;;12.77;3.97;;;;;;;25.18;54.38;95740.78;5049961;28;20249;-85
2022/06/05 03:28:09;;;;;;;16.80;4.25;;;;;;;25.04;55.43;95732.78;5033938;28;20289;-86
2022/06/05 03:30:39;;;;;;;16.73;3.90;;;;;;;24.82;56.08;95746.91;5027025;28;20291;-87
2022/06/05 03:33:08;;;;;;;14.88;3.97;;;;;;;24.82;56.18;95753.22;5023591;28;20236;-87
2022/06/05 03:35:40;;;;;;;15.05;4.15;;;;;;;24.92;55.50;95762.28;5019955;28;20255;-86
2022/06/05 03:38:07;;;;;;;10.80;3.38;;;;;;;24.97;55.36;95757.38;5037058;28;20204;-87
2022/06/05 03:40:35;;;;;;;13.45;3.95;;;;;;;25.06;54.78;95760.88;5044332;28;20201;-87
2022/06/05 03:43:03;;;;;;;19.42;4.28;;;;;;;25.52;52.72;95776.41;5013374;28;20469;-86
2022/06/05 03:45:30;;;;;;;13.30;4.15;;;;;;;25.93;50.80;95781.09;5007815;28;20352;-86
2022/06/05 03:47:57;;;;;;;16.83;4.03;;;;;;;26.24;49.64;95785.28;5021843;28;20229;-85
2022/06/05 03:50:26;;;;;;;10.57;3.75;;;;;;;26.20;50.36;95789.91;5018436;28;20257;-85
2022/06/05 03:52:53;;;;;;;11.88;4.07;;;;;;;26.17;49.75;95801.63;5007454;28;20206;-86
2022/06/05 03:55:22;;;;;;;15.88;3.90;;;;;;;26.16;50.67;95833.22;5015902;28;20216;-87
2022/06/05 03:57:50;;;;;;;12.90;4.05;;;;;;;25.88;52.69;95866.22;5024756;28;20202;-88
2022/06/05 04:00:21;;;;;;;14.70;4.00;;;;;;;25.59;57.88;95903.06;5011918;28;20213;-87
2022/06/05 04:02:49;;;;;;;9.27;3.63;;;;;;;24.77;68.08;95872.13;5012634;28;20216;-85
2022/06/05 04:05:20;;;;;;;11.40;4.47;;;;;;;24.11;72.04;95920.53;5010280;28;20202;-87
2022/06/05 04:07:49;;;;;;;12.00;4.35;;;;;;;23.92;73.86;95958.66;5008882;28;20265;-87
2022/06/05 04:10:17;;;;;;;14.02;4.80;;;;;;;23.57;79.61;95955.88;5011027;28;20230;-85
2022/06/05 04:12:44;;;;;;;11.20;4.55;;;;;;;23.19;82.54;95965.84;5027884;28;20251;-87
2022/06/05 04:15:12;;;;;;;13.25;4.60;;;;;;;23.17;81.88;95977.19;5007009;28;20206;-86
2022/06/05 04:17:39;;;;;;;11.57;4.93;;;;;;;23.12;84.71;95991.09;5011563;28;20360;-87
2022/06/05 04:20:08;;;;;;;11.07;4.57;;;;;;;22.89;86.91;95986.78;5009977;28;20206;-87
2022/06/05 04:22:36;;;;;;;7.50;4.93;;;;;;;22.76;88.81;95998.72;5022107;28;20214;-86
2022/06/05 04:25:05;;;;;;;9.10;4.43;;;;;;;22.59;90.20;96011.22;5017842;28;20269;-86
2022/06/05 04:27:32;;;;;;;10.23;4.38;;;;;;;22.56;91.00;96020.09;5030423;28;20202;-86
2022/06/05 04:29:59;;;;;;;7.40;4.55;;;;;;;22.54;92.32;96024.31;5014392;28;20246;-87
2022/06/05 04:32:27;;;;;;;9.43;4.88;;;;;;;22.44;93.37;96017.13;5003126;28;20217;-87
2022/06/05 04:34:54;;;;;;;9.77;4.28;;;;;;;22.41;92.56;96034.25;5010676;28;20271;-85
2022/06/05 04:37:21;;;;;;;10.43;4.57;;;;;;;22.40;93.18;96038.13;5010276;28;20252;-85
2022/06/05 04:39:48;;;;;;;9.15;4.63;;;;;;;22.33;94.19;96043.25;5024857;28;20259;-86
2022/06/05 04:42:17;;;;;;;9.80;4.57;;;;;;;22.27;95.06;96050.00;5032066;28;20241;-86
2022/06/05 04:44:44;;;;;;;6.75;4.70;;;;;;;22.16;96.33;96043.13;5035050;28;20216;-86
2022/06/05 04:47:11;;;;;;;8.02;4.88;;;;;;;22.14;96.52;96056.34;5027538;28;20205;-87
2022/06/05 04:49:38;;;;;;;7.95;4.50;;;;;;;22.13;96.85;96054.72;5031268;28;20213;-87
2022/06/05 04:52:05;;;;;;;6.65;4.22;;;;;;;22.11;97.16;96063.31;5031126;28;20659;-85
2022/06/05 04:54:32;;;;;;;10.85;4.78;;;;;;;22.09;97.62;96067.47;5045198;28;20334;-85
2022/06/05 04:56:59;;;;;;;6.70;4.40;;;;;;;21.98;98.16;96066.91;5027528;28;20205;-86
2022/06/05 04:59:28;;;;;;;9.00;4.82;;;;;;;22.03;98.04;96071.47;5027395;28;20220;-87
2022/06/05 05:01:55;;;;;;;7.50;4.53;;;;;;;22.06;98.18;96077.16;5045320;28;20224;-85
2022/06/05 05:04:22;;;;;;;8.95;4.90;;;;;;;22.01;98.63;96079.22;5028275;28;20296;-87
2022/06/05 05:06:49;;;;;;;10.30;5.07;;;;;;;21.99;99.29;96073.22;5028175;28;20219;-87
2022/06/05 05:09:16;;;;;;;9.43;4.90;;;;;;;21.98;98.75;96077.88;5043296;28;20308;-87
2022/06/05 05:11:44;;;;;;;9.70;4.55;;;;;;;22.00;98.43;96074.84;5025840;28;20243;-87
2022/06/05 05:14:12;;;;;;;10.77;4.53;;;;;;;22.09;98.68;96078.47;5027719;28;20206;-85
2022/06/05 05:16:41;;;;;;;7.78;4.35;;;;;;;22.00;98.57;96063.84;5037007;28;20237;-87
2022/06/05 05:19:08;;;;;;;10.82;4.68;;;;;;;22.09;97.55;96070.22;5045569;28;20216;-85
2022/06/05 05:21:36;;;;;;;10.18;4.40;;;;;;;22.09;98.02;96075.72;5026060;28;20213;-86
2022/06/05 05:24:04;;;;;;;8.43;4.07;;;;;;;22.14;97.91;96061.84;5042939;28;20221;-87
2022/06/05 05:26:33;;;;;;;10.13;4.20;;;;;;;22.12;97.37;96083.34;5048047;28;20256;-88
2022/06/05 05:29:01;;;;;;;5.43;3.90;;;;;;;22.17;95.29;96072.25;5031287;28;20390;-87
2022/06/05 05:31:30;;;;;;;7.95;3.97;;;;;;;22.21;94.78;96070.47;5036589;28;20206;-85
2022/06/05 05:33:59;;;;;;;6.57;3.90;;;;;;;22.25;92.58;96074.25;5027402;28;20214;-87
2022/06/05 05:36:27;;;;;;;5.60;3.50;;;;;;;22.29;91.80;96075.25;5027175;28;20567;-87
2022/06/05 05:44:26;;;;;;;6.70;3.78;;;;;;;22.39;90.77;96091.50;5044906;28;20206;-86
2022/06/05 05:46:54;;;;;;;8.63;3.72;;;;;;;22.36;91.76;96094.91;5044973;28;20209;-85
2022/06/05 05:49:22;;;;;;;9.77;3.97;;;;;;;22.29;92.31;96078.00;5042025;28;20222;-87
2022/06/05 05:51:50;;;;;;;6.93;3.47;;;;;;;22.28;92.28;96081.88;5028108;28;20198;-87
2022/06/05 05:54:17;;;;;;;5.53;3.55;;;;;;;22.24;92.48;96086.38;5040706;28;20298;-86
2022/06/05 05:56:44;;;;;;;7.90;3.65;;;;;;;22.22;92.22;96097.69;5029252;28;20197;-87
2022/06/05 05:59:11;;;;;;;4.45;3.00;;;;;;;22.21;92.30;96090.53;5027292;28;20209;-86
2022/06/05 06:01:38;;;;;;;5.50;3.95;;;;;;;22.18;93.34;96101.38;5025490;28;20205;-87
2022/06/05 06:04:05;;;;;;;5.93;3.67;;;;;;;22.14;94.01;96106.66;5030258;28;20536;-86
2022/06/05 06:06:35;;;;;;;6.45;4.07;;;;;;;22.12;95.13;96102.59;5042227;28;20208;-87
2022/06/05 06:09:03;;;;;;;6.38;3.80;;;;;;;22.08;97.18;96101.59;5040104;28;20197;-87
2022/06/05 06:11:30;;;;;;;6.38;3.72;;;;;;;22.02;97.63;96095.41;5028007;28;20277;-86
2022/06/05 06:13:57;;;;;;;7.70;3.70;;;;;;;22.05;97.39;96093.97;5027001;28;20209;-87
2022/06/05 06:16:26;;;;;;;8.75;4.18;;;;;;;22.08;97.11;96098.84;5019217;28;20291;-86
2022/06/05 06:18:54;;;;;;;5.45;3.90;;;;;;;22.17;95.06;96108.00;5042238;28;20205;-86
2022/06/05 06:21:21;;;;;;;10.48;3.65;;;;;;;22.22;95.20;96099.63;5027551;28;20185;-86
2022/06/05 06:23:50;;;;;;;6.47;3.63;;;;;;;22.32;93.97;96106.81;5029091;28;20233;-85
2022/06/05 06:26:18;;;;;;;4.63;3.60;;;;;;;22.34;98.72;96093.56;5044681;28;20201;-87
2022/06/05 06:28:45;;;;;;;7.10;4.18;;;;;;;22.30;100.00;96087.88;5034322;28;20221;-87
2022/06/05 06:31:14;;;;;;;7.47;4.20;;;;;;;22.37;99.68;96109.47;5025136;28;20220;-87
2022/06/05 06:33:42;;;;;;;7.25;4.45;;;;;;;22.39;99.73;96101.69;5040483;28;20288;-87
2022/06/05 06:36:12;;;;;;;6.22;3.83;;;;;;;22.46;98.68;96085.56;5019945;28;20209;-87
2022/06/05 06:38:40;;;;;;;6.07;3.90;;;;;;;22.53;97.80;96092.28;5022306;28;20235;-88
2022/06/05 06:41:11;;;;;;;6.18;3.60;;;;;;;22.55;97.17;96095.50;5042953;28;20199;-88
2022/06/05 06:43:40;;;;;;;6.93;4.13;;;;;;;22.72;96.78;96096.75;5040961;28;20819;-88
2022/06/05 06:46:08;;;;;;;5.72;3.65;;;;;;;22.68;95.92;96093.84;5031992;28;20209;-88
2022/06/05 06:48:35;;;;;;;6.35;3.92;;;;;;;22.68;97.08;96077.31;5043947;28;20212;-88
2022/06/05 06:51:04;;;;;;;5.72;3.70;;;;;;;22.72;97.06;96088.50;5035948;28;20217;-88
2022/06/05 06:53:32;;;;;;;7.20;3.85;;;;;;;22.68;96.09;96079.25;5044872;28;20233;-88
2022/06/05 06:55:59;;;;;;;6.22;4.00;;;;;;;22.62;96.38;96081.34;5060191;28;20207;-88
2022/06/05 06:58:28;;;;;;;7.65;3.38;;;;;;;22.65;94.42;96089.75;5052784;28;20213;-88
2022/06/05 07:00:55;;;;;;;10.05;4.10;;;;;;;22.60;93.18;96086.34;5040067;28;20224;-89
2022/06/05 07:03:22;;;;;;;6.18;3.50;;;;;;;22.60;93.94;96089.09;5043564;28;20209;-89
2022/06/05 07:05:49;;;;;;;7.50;3.40;;;;;;;22.56;97.36;96077.88;5060477;28;20256;-89
2022/06/05 07:08:16;;;;;;;7.32;3.45;;;;;;;22.60;99.30;96075.31;5061308;28;20280;-87
2022/06/05 07:10:45;;;;;;;4.18;3.75;;;;;;;22.61;99.65;96082.47;5038167;28;20221;-89
2022/06/05 07:13:13;;;;;;;5.60;3.20;;;;;;;22.63;97.64;96089.25;5045251;28;20196;-89
2022/06/05 07:15:42;;;;;;;5.50;4.18;;;;;;;22.73;99.82;96085.44;5039800;28;20221;-88
2022/06/05 07:18:09;;;;;;;6.03;2.97;;;;;;;22.83;97.39;96073.41;5062543;28;20279;-89
2022/06/05 07:20:38;;;;;;;6.28;3.33;;;;;;;23.33;96.19;96080.28;5045443;28;20300;-87
2022/06/05 07:23:06;;;;;;;5.03;3.33;;;;;;;23.52;88.84;96085.59;5043776;28;20202;-87
2022/06/05 07:25:35;;;;;;;6.15;3.10;;;;;;;23.61;88.36;96072.66;5044734;28;20205;-87
2022/06/05 07:28:04;;;;;;;9.15;3.30;;;;;;;23.72;89.51;96067.66;5044794;28;20243;-86
2022/06/05 07:30:31;;;;;;;7.03;3.13;;;;;;;23.53;94.11;96075.38;5060606;28;20236;-87
2022/06/05 07:33:00;;;;;;;5.28;3.10;;;;;;;23.65;97.37;96072.78;5054651;28;20212;-87
2022/06/05 07:35:27;;;;;;;6.47;3.60;;;;;;;23.92;87.92;96077.25;5048649;28;20289;-86
2022/06/05 07:37:54;;;;;;;3.95;2.83;;;;;;;24.21;84.84;96065.63;5046391;28;20251;-86
2022/06/05 07:40:21;;;;;;;4.50;3.20;;;;;;;24.63;83.34;96064.81;5067046;28;20194;-87
2022/06/05 07:42:48;;;;;;;6.88;3.08;;;;;;;24.98;80.25;96060.06;5061834;28;20225;-86
2022/06/05 07:45:17;;;;;;;6.53;3.15;;;;;;;25.10;73.72;96062.94;5061869;28;20221;-86
2022/06/05 07:47:44;;;;;;;6.30;3.20;;;;;;;25.01;76.50;96064.91;5047987;28;20209;-86
2022/06/05 07:50:14;;;;;;;6.15;3.00;;;;;;;24.87;77.41;96050.47;5045126;28;20230;-87
2022/06/05 07:55:27;;;;;;;6.65;2.80;;;;;;;25.22;74.84;96062.25;5035999;28;20233;-87
2022/06/05 07:57:55;;;;;;;5.20;2.67;;;;;;;25.08;75.72;96031.25;5047131;28;20216;-87
2022/06/05 08:00:23;;;;;;;5.78;2.90;;;;;;;25.35;74.80;96033.56;5048144;28;20306;-87
2022/06/05 08:02:50;;;;;;;3.78;3.10;;;;;;;25.79;72.07;96036.94;5046961;28;20290;-87
2022/06/05 08:05:19;;;;;;;4.55;2.72;;;;;;;26.08;74.62;96036.09;5049526;28;20214;-88
2022/06/05 08:07:46;;;;;;;5.35;3.00;;;;;;;26.21;68.42;96035.81;5059748;28;20247;-87
2022/06/05 08:10:13;;;;;;;7.03;2.90;;;;;;;26.17;70.06;96042.38;5042147;28;20229;-88
2022/06/05 08:12:40;;;;;;;7.50;3.17;;;;;;;26.11;70.46;96046.50;5045437;28;20197;-87
2022/06/05 08:15:12;;;;;;;6.07;2.88;;;;;;;26.25;68.93;96044.28;5062568;28;20229;-88
2022/06/05 08:17:40;;;;;;;6.28;2.78;;;;;;;26.21;73.31;96035.81;5064119;28;20213;-87
2022/06/05 08:20:10;;;;;;;7.20;3.05;;;;;;;26.35;71.83;96053.03;5052136;28;20202;-87
2022/06/05 08:22:38;;;;;;;5.20;3.28;;;;;;;26.57;68.09;96048.25;5046368;28;20476;-88
2022/06/05 08:25:06;;;;;;;6.22;3.10;;;;;;;26.83;62.94;96037.75;5040092;28;20214;-88
2022/06/05 08:27:33;;;;;;;4.15;2.33;;;;;;;26.97;62.51;96038.25;5040596;28;20309;-87
2022/06/05 08:30:00;;;;;;;5.40;3.00;;;;;;;27.08;63.11;96036.69;5039280;28;20206;-88
2022/06/05 08:32:29;;;;;;;5.63;2.80;;;;;;;26.87;63.98;96030.38;5049594;28;20229;-87
2022/06/05 08:34:57;;;;;;;9.50;2.90;;;;;;;27.01;62.11;96030.88;5040830;28;20215;-87
2022/06/05 08:43:20;;;;;;;5.32;2.95;;;;;;;27.41;62.47;96041.34;5056072;28;20251;-87
2022/06/05 08:45:55;;;;;;;4.97;2.55;;;;;;;27.13;60.92;96035.66;5045448;28;20259;-87
2022/06/05 08:48:28;;;;;;;6.00;2.80;;;;;;;26.54;63.62;96048.97;5057404;28;20613;-87
2022/06/05 08:51:01;;;;;;;5.50;2.83;;;;;;;26.38;64.47;96051.50;5040817;28;20234;-87
2022/06/05 08:53:41;;;;;;;7.88;2.78;;;;;;;26.58;66.07;96052.66;5062464;28;20217;-87
2022/06/05 08:56:16;;;;;;;7.32;2.95;;;;;;;26.71;63.86;96051.56;5049497;28;20279;-87
2022/06/05 08:58:52;;;;;;;7.65;2.90;;;;;;;26.70;64.27;96053.53;5048850;28;20243;-87
2022/06/05 09:01:25;;;;;;;4.68;2.42;;;;;;;26.64;64.20;96049.31;5046297;28;20373;-87
2022/06/05 09:03:59;;;;;;;6.30;2.88;;;;;;;26.51;67.96;96050.44;5062385;28;20209;-87
2022/06/05 09:06:33;;;;;;;7.13;3.63;;;;;;;26.59;67.75;96045.97;5054242;28;20209;-87
2022/06/05 09:09:05;;;;;;;7.97;3.17;;;;;;;26.32;67.85;96045.38;5044708;28;20290;-87
2022/06/05 09:11:44;;;;;;;8.15;2.80;;;;;;;26.22;70.74;96048.53;5062125;28;20343;-86
2022/06/05 09:14:22;;;;;;;10.75;2.95;;;;;;;26.19;68.99;96035.38;5050945;28;20205;-87
2022/06/05 09:16:53;;;;;;;9.82;3.42;;;;;;;26.29;69.20;96032.22;5062413;28;20232;-86
2022/06/05 09:19:29;;;;;;;6.30;2.80;;;;;;;26.34;69.55;96026.47;5048354;28;20217;-87
2022/06/05 09:22:02;;;;;;;10.15;3.33;;;;;;;26.56;68.69;96030.84;5048492;28;20214;-87
2022/06/05 09:24:42;;;;;;;8.18;3.10;;;;;;;26.54;66.87;96024.81;5045873;28;20288;-86
2022/06/05 09:27:21;;;;;;;6.10;3.13;;;;;;;26.19;67.39;96017.97;5050030;28;20205;-86
2022/06/05 09:29:56;;;;;;;6.75;2.70;;;;;;;26.31;66.94;96035.47;5042805;28;20209;-87
2022/06/05 09:32:46;;;;;;;5.57;2.70;;;;;;;26.28;66.81;96019.53;5062073;28;20278;-87
2022/06/05 09:35:20;;;;;;;9.45;2.97;;;;;;;26.20;67.08;96017.59;5066181;28;20293;-87
2022/06/05 09:37:52;;;;;;;7.68;2.90;;;;;;;26.22;66.27;96023.59;5048105;28;20205;-87
2022/06/05 09:40:24;;;;;;;10.93;2.83;;;;;;;26.26;65.95;96016.28;5067132;28;20213;-87
2022/06/05 09:43:10;;;;;;;5.38;2.60;;;;;;;26.27;66.01;96009.63;5065478;28;20240;-86
2022/06/05 09:45:52;;;;;;;9.82;3.08;;;;;;;26.26;64.74;96012.72;5043333;28;20293;-87
2022/06/05 09:48:27;;;;;;;5.90;2.78;;;;;;;26.44;66.08;95999.53;5042412;28;20209;-86
2022/06/05 09:50:55;;;;;;;6.07;2.70;;;;;;;26.39;63.98;96003.31;5036358;28;20294;-87
2022/06/05 09:53:27;;;;;;;7.28;2.53;;;;;;;26.53;64.90;96014.09;5067372;28;20269;-86
2022/06/05 09:56:05;;;;;;;6.95;2.85;;;;;;;26.78;63.68;96020.53;5050184;28;20231;-87
2022/06/05 09:58:56;;;;;;;7.45;2.88;;;;;;;26.76;61.77;96018.09;5047627;28;20304;-87
2022/06/05 10:01:28;;;;;;;9.32;3.22;;;;;;;26.49;62.87;96018.69;5042820;28;20255;-87
2022/06/05 10:03:57;;;;;;;8.20;3.42;;;;;;;26.61;62.95;96033.41;5046454;28;20217;-86
2022/06/05 10:06:35;;;;;;;5.68;2.63;;;;;;;26.44;63.56;96033.56;5051376;28;20239;-87
2022/06/05 10:09:10;;;;;;;8.30;2.90;;;;;;;26.48;63.87;96033.69;5059292;28;20571;-87
2022/06/05 10:11:43;;;;;;;7.07;2.83;;;;;;;26.54;63.79;96027.59;5064226;28;20274;-87
2022/06/05 10:14:26;;;;;;;6.03;2.70;;;;;;;26.77;62.09;96030.00;5058872;28;20205;-87
2022/06/05 10:17:05;;;;;;;10.88;2.80;;;;;;;26.71;61.98;96043.25;5062259;28;20236;-86
2022/06/05 10:19:47;;;;;;;8.27;2.80;;;;;;;26.67;61.54;96039.53;5058119;28;20293;-87
2022/06/05 10:22:24;;;;;;;9.95;2.90;;;;;;;26.62;61.46;96031.44;5065764;28;20194;-87
2022/06/05 10:24:59;;;;;;;8.85;2.85;;;;;;;26.72;62.57;96026.28;5049703;28;20235;-86
2022/06/05 10:27:27;;;;;;;9.68;3.20;;;;;;;27.05;61.54;96026.25;5036868;28;20216;-87
2022/06/05 10:30:00;;;;;;;5.65;2.45;;;;;;;27.17;60.18;96025.50;5048483;28;20213;-86
2022/06/05 10:32:39;;;;;;;10.48;2.72;;;;;;;27.03;60.59;96011.97;5047310;28;20256;-87
2022/06/05 10:35:14;;;;;;;9.48;3.10;;;;;;;27.01;60.62;96013.44;5049967;28;20216;-86
2022/06/05 10:37:48;;;;;;;8.18;2.65;;;;;;;26.98;60.68;96017.72;5048831;28;20213;-86
2022/06/05 10:40:23;;;;;;;5.07;2.90;;;;;;;27.15;61.24;96016.69;5047397;28;20227;-87
2022/06/05 10:42:56;;;;;;;7.30;2.75;;;;;;;27.18;62.15;96020.75;5051099;28;20239;-87
2022/06/05 10:45:49;;;;;;;8.55;3.08;;;;;;;27.11;61.71;96024.91;5040056;28;20210;-86
2022/06/05 10:48:46;;;;;;;12.32;3.38;;;;;;;27.15;61.59;96022.25;5047914;28;20214;-87
2022/06/05 10:51:22;;;;;;;7.47;3.25;;;;;;;27.04;61.81;95991.41;5061724;28;20270;-87
2022/06/05 10:53:55;;;;;;;9.40;3.38;;;;;;;27.30;62.48;95987.50;5063384;28;20255;-87
2022/06/05 10:56:34;;;;;;;8.43;2.88;;;;;;;27.30;63.56;95987.50;5059309;28;20217;-87
2022/06/05 10:59:10;;;;;;;10.95;3.50;;;;;;;27.60;61.22;96013.06;5044274;28;20205;-87
2022/06/05 11:02:01;;;;;;;7.43;3.00;;;;;;;27.40;61.97;96003.66;5048700;28;20289;-87
2022/06/05 11:04:43;;;;;;;8.55;3.60;;;;;;;27.35;63.69;96015.00;5059071;28;20220;-87
2022/06/05 11:07:24;;;;;;;10.82;3.10;;;;;;;27.26;63.41;96001.25;5048796;28;20201;-86
2022/06/05 11:09:57;;;;;;;10.35;3.60;;;;;;;27.23;64.12;96010.25;5065038;28;20202;-86
2022/06/05 11:15:24;;;;;;;8.85;3.05;;;;;;;27.37;63.82;96023.78;5052308;28;20205;-89
2022/06/05 11:18:04;;;;;;;10.95;3.50;;;;;;;26.88;64.93;96047.81;5050876;28;20332;-90
2022/06/05 11:20:33;;;;;;;6.38;3.13;;;;;;;26.02;67.41;96046.56;5047473;28;20204;-88
2022/06/05 11:23:03;;;;;;;9.25;3.72;;;;;;;25.36;70.02;96046.25;5047746;28;20208;-90
2022/06/05 11:25:36;;;;;;;9.90;3.10;;;;;;;25.14;72.07;96032.69;5064805;28;20263;-86
2022/06/05 11:28:24;;;;;;;10.63;3.40;;;;;;;25.14;71.20;96041.00;5052527;28;20229;-86
2022/06/05 11:31:08;;;;;;;5.65;2.50;;;;;;;24.61;71.19;96075.34;5074549;28;20252;-86
2022/06/05 11:33:47;;;;;;;7.00;2.33;;;;;;;23.77;77.62;96108.84;5047841;28;20209;-86
2022/06/05 11:36:20;;;;;;;3.60;1.63;;;;;;;22.86;75.04;96105.81;5051026;28;20205;-87
2022/06/05 11:39:03;;;;;;;4.82;1.65;;;;;;;22.47;78.90;96103.69;5054066;28;20213;-87
2022/06/05 11:41:38;;;;;;;2.75;1.52;;;;;;;22.30;79.69;96081.56;5068298;28;20637;-86
2022/06/05 11:44:23;;;;;;;2.92;1.70;;;;;;;21.88;79.39;96102.81;5050144;28;20213;-86
2022/06/05 11:46:56;;;;;;;2.83;1.10;;;;;;;21.56;77.25;96117.50;5060939;28;20213;-86
2022/06/05 11:49:38;;;;;;;3.38;1.38;;;;;;;21.33;74.88;96148.75;5046737;28;20270;-87
2022/06/05 11:52:14;;;;;;;3.78;1.10;;;;;;;21.17;77.33;96147.38;5053702;28;20218;-86
2022/06/05 11:54:48;;;;;;;10.35;2.42;;;;;;;20.73;90.30;96156.91;5061479;28;20211;-86
2022/06/05 11:57:22;;;;;;;7.47;2.20;;;;;;;20.09;100.00;96144.66;5052012;28;20295;-86
2022/06/05 11:59:57;;;;;;;6.25;2.40;;;;;;;19.67;100.00;96158.38;5062004;28;20205;-85
2022/06/05 12:02:44;;;;;;;8.38;2.15;;;;;;;19.15;100.00;96185.44;5052935;28;20208;-86
2022/06/05 12:05:22;;;;;;;8.38;2.63;;;;;;;18.92;100.00;96199.06;5071022;28;20251;-85
2022/06/05 12:07:52;;;;;;;5.67;2.03;;;;;;;18.63;100.00;96205.31;5046465;28;20240;-87